Airfield :
LOGIN :

Register | Disclaimer

   EN    FR    IT 

 










Legend :    VFR   Marginal VFR   IFR   Intensive IFR   Very Intensive IFR
Visi :
Ceiling :
>= 8 km
>= 3000ft
5 to 8 km
1000 to 3000 ft
1500m to 5 km
500 to 1000 ft
800 to 1500m
200 to 500 ft
< 800m
< 200 ft
Symbols :   Thunderstorms  Fog  Heavy snow  Heavy precipitations  Wind > 20 kt
SIGMETs :     Misc.  Thunderstorms  Icing  Turbulence  Mountain Waves  Volcanic Ashes







- Airport Elevation : 408 ft
- IATA code : SOB


LHSM - Sarmellek Balaton

CURRENT METAR :
  • 191815Z 33013KT 9999 -RA FEW015 OVC083 18/15 Q1017 TEMPO SHRA SCT020TCU BKN050

EXPIRED METARs :
  • 191745Z 34013KT 9999 -RA FEW018 OVC083 18/15 Q1017 TEMPO SHRA SCT020TCU BKN050
  • 191715Z 35017G28KT 9999 -RA FEW020 BKN083 19/15 Q1017 NOSIG
  • 191645Z 34015KT CAVOK 20/15 Q1017 RERA NOSIG
  • 191615Z 35014G25KT 9999 FEW027 BKN083 21/15 Q1016 NOSIG
  • 191545Z 36015KT 9999 FEW030 BKN083 22/14 Q1016 NOSIG

TAF TAF LHSM
Valid from the 19 at 18:00 until the 20 at 03:00 UTC


191715Z 1918/2003 36014G24KT CAVOK
TEMPO 1918/2003 8000 -RA -SHRA FEW020 SCT030 OVC060
PROB30
TEMPO 1918/2003 VRB20G32KT 5000 TSRA SCT020CB OVC060
PROB40
TEMPO 1921/2003 5000 RA BKN010 OVC030
No reported NOTAMs for that airfield.
2 SIGMETs reported for the Budapest FIR (LHCC) :
 
Embedded thunderstorms
LHCC SIGMET 02 VALID 191630/191930 LHBP
LHCC BUDAPEST FIR EMBD TS OBS NW OF LINE N4750 E01848 - N4612 E01700 TOPFL320 MOV NE NC=
Severe icing
LHCC SIGMET 01 VALID 191445/191845 LHBP
LHCC BUDAPEST FIR SEV ICE FCST NW OF LINE N4743 E01800 - N4620 E01647 FL130/190 MOV NE NC=



MET'MAP, your aeronautical weather chart ! - Copyright ORBIFLY December 2007 - Disclaimer

ORBIFLY MET'MAP TEAM :

Programming & Development : Alexandra Zaïnal
Concept & Development : Baudouin d'Aumeries
Co-Development & Prog : Marc-Olivier Méhu
Technical & hardware support : Manuel Goepfert

Contact : metmap@orbifly.com




SOURCES & CREDITS :

   NOAA